createdAt,value
2022-11-23T00:06:17.990Z,100
2022-11-23T00:16:18.119Z,100
2022-11-23T00:26:19.013Z,100
2022-11-23T00:36:19.884Z,100
2022-11-23T00:46:20.023Z,100
2022-11-23T00:56:21.031Z,100
2022-11-23T01:07:26.743Z,100
2022-11-23T01:16:24.317Z,100
2022-11-23T01:26:22.919Z,100
2022-11-23T01:36:23.023Z,100
2022-11-23T01:46:23.872Z,100
2022-11-23T01:56:24.288Z,100
2022-11-23T02:06:25.225Z,100
2022-11-23T02:26:26.667Z,100
2022-11-23T02:36:27.146Z,100
2022-11-23T02:46:28.068Z,100
2022-11-23T02:56:28.711Z,100
2022-11-23T03:16:30.184Z,100
2022-11-23T03:46:32.914Z,100
2022-11-23T03:56:33.827Z,100
2022-11-23T04:06:34.837Z,100
2022-11-23T04:16:35.732Z,100
2022-11-23T04:26:36.504Z,100
2022-11-23T04:36:37.459Z,100
2022-11-23T04:46:38.441Z,100
2022-11-23T04:56:39.235Z,100
2022-11-23T05:06:40.318Z,100
2022-11-23T05:16:41.036Z,100
2022-11-23T05:26:41.584Z,100
2022-11-23T05:36:42.449Z,100
2022-11-23T05:46:42.591Z,100
2022-11-23T05:56:42.943Z,100
2022-11-23T06:06:43.281Z,100
2022-11-23T06:16:43.642Z,100
2022-11-23T06:26:44.478Z,100
2022-11-23T06:36:45.390Z,100
2022-11-23T06:46:46.398Z,100
2022-11-23T06:56:47.237Z,100
2022-11-23T07:06:47.816Z,100
2022-11-23T07:16:48.701Z,100
2022-11-23T07:26:49.732Z,100
2022-11-23T07:36:50.722Z,100
2022-11-23T07:46:51.229Z,100
2022-11-23T07:56:51.848Z,100
2022-11-23T08:06:52.493Z,100
2022-11-23T08:16:52.776Z,100
2022-11-23T08:26:53.325Z,100
2022-11-23T08:46:54.239Z,98
2022-11-23T08:56:55.273Z,96
2022-11-23T09:06:56.167Z,95
2022-11-23T09:16:57.042Z,94
2022-11-23T09:26:57.381Z,92
2022-11-23T09:36:58.021Z,90
2022-11-23T09:46:58.994Z,89
2022-11-23T09:57:01.788Z,82
2022-11-23T10:06:59.733Z,79
2022-11-23T10:16:59.947Z,78
2022-11-23T10:27:00.998Z,77
2022-11-23T10:37:02.047Z,76
2022-11-23T10:47:02.753Z,72
2022-11-23T10:57:02.921Z,71
2022-11-23T11:07:03.364Z,71
2022-11-23T11:17:04.023Z,71
2022-11-23T11:27:04.389Z,69
2022-11-23T11:37:04.542Z,69
2022-11-23T11:47:05.569Z,69
2022-11-23T11:57:05.724Z,70
2022-11-23T12:07:06.736Z,67
2022-11-23T12:27:07.475Z,66
2022-11-23T12:37:07.827Z,65
2022-11-23T12:47:08.258Z,66
2022-11-23T12:57:08.347Z,69
2022-11-23T13:07:28.727Z,67
2022-11-23T13:17:09.633Z,69
2022-11-23T13:27:09.943Z,69
2022-11-23T13:37:12.499Z,68
2022-11-23T13:47:11.670Z,69
2022-11-23T13:57:12.417Z,69
2022-11-23T14:07:13.113Z,70
2022-11-23T14:27:39.358Z,71
2022-11-23T14:37:14.208Z,72
2022-11-23T14:47:14.710Z,72
2022-11-23T14:57:15.635Z,73
2022-11-23T15:17:16.514Z,74
2022-11-23T15:27:16.840Z,75
2022-11-23T15:37:17.839Z,75
2022-11-23T15:47:18.408Z,76
2022-11-23T15:57:18.948Z,78
2022-11-23T16:07:19.694Z,78
2022-11-23T16:17:19.950Z,78
2022-11-23T16:27:20.255Z,78
2022-11-23T16:37:21.058Z,79
2022-11-23T16:47:22.028Z,79
2022-11-23T16:57:22.554Z,79
2022-11-23T17:07:22.869Z,80
2022-11-23T17:17:23.042Z,83
2022-11-23T17:27:23.866Z,87
2022-11-23T17:37:24.371Z,88
2022-11-23T17:47:25.341Z,90
2022-11-23T17:57:26.409Z,92
2022-11-23T18:07:26.639Z,94
2022-11-23T18:17:27.371Z,95
2022-11-23T18:27:28.086Z,95
2022-11-23T18:37:28.565Z,95
2022-11-23T18:47:29.004Z,95
2022-11-23T18:57:30.042Z,95
2022-11-23T19:07:31.111Z,95
2022-11-23T19:17:31.472Z,95
2022-11-23T19:27:32.004Z,95
2022-11-23T19:37:32.353Z,95
2022-11-23T19:47:32.864Z,95
2022-11-23T19:57:33.617Z,95
2022-11-23T20:07:34.231Z,95
2022-11-23T20:17:34.350Z,95
2022-11-23T20:27:34.978Z,95
2022-11-23T20:37:35.843Z,95
2022-11-23T20:47:36.773Z,96
2022-11-23T20:57:37.351Z,96
2022-11-23T21:17:38.465Z,96
2022-11-23T21:27:39.054Z,96
2022-11-23T21:37:39.197Z,96
2022-11-23T21:47:39.863Z,97
2022-11-23T21:57:40.797Z,97
2022-11-23T22:07:44.585Z,97
2022-11-23T22:17:42.490Z,98
2022-11-23T22:27:43.298Z,98
2022-11-23T22:37:43.461Z,98
2022-11-23T22:47:44.254Z,98
2022-11-23T22:57:44.461Z,98
2022-11-23T23:07:45.138Z,98
2022-11-23T23:17:46.064Z,98
2022-11-23T23:27:46.500Z,98
2022-11-23T23:37:46.658Z,98
2022-11-23T23:47:47.145Z,98
2022-11-23T23:48:09.038Z,98
